createdAt,value
2017-12-04T00:01:18.505Z,81.03
2017-12-04T00:03:46.154Z,81.09
2017-12-04T00:06:13.702Z,81.48
2017-12-04T00:08:41.374Z,81.27
2017-12-04T00:11:09.003Z,81.17
2017-12-04T00:13:36.603Z,81.24
2017-12-04T00:16:04.249Z,81.45
2017-12-04T00:18:31.887Z,81.41
2017-12-04T00:20:59.537Z,81.53
2017-12-04T00:23:27.140Z,81.90
2017-12-04T00:25:54.821Z,81.94
2017-12-04T00:28:22.506Z,82.07
2017-12-04T00:30:50.218Z,82.36
2017-12-04T00:33:18.677Z,82.68
2017-12-04T00:35:46.474Z,82.50
2017-12-04T00:38:14.058Z,82.67
2017-12-04T00:40:41.665Z,82.63
2017-12-04T00:43:09.223Z,82.99
2017-12-04T00:45:36.780Z,83.05
2017-12-04T00:48:04.343Z,83.31
2017-12-04T00:50:31.967Z,83.51
2017-12-04T00:52:59.587Z,83.47
2017-12-04T00:55:27.454Z,83.72
2017-12-04T00:57:55.105Z,83.65
2017-12-04T01:00:22.758Z,84.04
2017-12-04T01:02:50.352Z,84.13
2017-12-04T01:05:17.973Z,84.17
2017-12-04T01:07:45.533Z,84.27
2017-12-04T01:10:13.218Z,84.07
2017-12-04T01:12:40.922Z,84.39
2017-12-04T01:15:08.572Z,84.23
2017-12-04T01:17:36.204Z,83.98
2017-12-04T01:20:03.821Z,84.01
2017-12-04T01:22:31.459Z,84.35
2017-12-04T01:24:59.098Z,84.41
2017-12-04T01:27:26.750Z,84.72
2017-12-04T01:29:54.360Z,84.61
2017-12-04T01:32:21.926Z,84.56
2017-12-04T01:34:49.720Z,84.88
2017-12-04T01:37:17.291Z,85.08
2017-12-04T01:39:44.882Z,85.04
2017-12-04T01:42:12.573Z,84.59
2017-12-04T01:44:40.160Z,84.85
2017-12-04T01:47:07.948Z,84.24
2017-12-04T01:49:35.569Z,84.53
2017-12-04T01:52:03.125Z,84.26
2017-12-04T01:54:30.696Z,84.30
2017-12-04T01:56:59.096Z,84.34
2017-12-04T01:59:26.660Z,84.73
2017-12-04T02:01:54.449Z,84.43
2017-12-04T02:04:22.054Z,84.71
2017-12-04T02:06:49.628Z,84.61
2017-12-04T02:09:19.109Z,84.34
2017-12-04T02:11:46.691Z,84.34
2017-12-04T02:14:14.249Z,84.03
2017-12-04T02:16:41.810Z,84.20
2017-12-04T02:19:09.801Z,84.23
2017-12-04T02:21:37.428Z,84.42
2017-12-04T02:24:05.008Z,83.98
2017-12-04T02:26:32.601Z,84.16
2017-12-04T02:29:00.592Z,83.45
2017-12-04T02:31:28.375Z,83.86
2017-12-04T02:33:56.017Z,83.40
2017-12-04T02:36:23.624Z,83.36
2017-12-04T02:38:51.301Z,83.35
2017-12-04T02:41:18.967Z,84.07
2017-12-04T02:43:46.565Z,84.54
2017-12-04T02:46:14.193Z,85.20
2017-12-04T02:48:42.134Z,85.00
2017-12-04T02:51:09.700Z,84.53
2017-12-04T02:53:37.670Z,83.94
2017-12-04T02:56:05.819Z,84.17
2017-12-04T02:58:33.453Z,83.30
2017-12-04T03:01:01.038Z,83.68
2017-12-04T03:03:28.928Z,83.68
2017-12-04T03:05:56.492Z,83.72
2017-12-04T03:08:24.131Z,84.16
2017-12-04T03:10:51.824Z,84.60
2017-12-04T03:13:19.471Z,84.82
2017-12-04T03:15:47.213Z,85.26
2017-12-04T03:20:48.652Z,85.78
2017-12-04T03:23:16.454Z,85.71
2017-12-04T03:25:44.024Z,85.78
2017-12-04T03:28:11.601Z,85.84
2017-12-04T03:30:39.172Z,85.75
2017-12-04T03:33:06.833Z,85.98
2017-12-04T03:35:34.416Z,85.62
2017-12-04T03:38:02.010Z,85.65
2017-12-04T03:40:29.623Z,85.87
2017-12-04T03:42:57.286Z,86.12
2017-12-04T03:45:24.918Z,86.74
2017-12-04T03:47:52.548Z,87.37
2017-12-04T03:50:20.047Z,87.33
2017-12-04T03:52:47.637Z,88.20
2017-12-04T03:55:15.439Z,88.93
2017-12-04T03:57:43.010Z,88.70
2017-12-04T04:00:10.587Z,89.29
2017-12-04T04:02:38.150Z,89.20
2017-12-04T04:05:05.880Z,88.77
2017-12-04T04:07:34.457Z,88.87
2017-12-04T04:10:01.983Z,87.94
2017-12-04T04:12:29.546Z,88.62
2017-12-04T04:14:57.124Z,88.17
2017-12-04T04:17:24.980Z,88.04
2017-12-04T04:19:52.812Z,88.21
2017-12-04T04:22:20.984Z,86.17
2017-12-04T04:24:48.550Z,86.35
2017-12-04T04:27:16.127Z,85.71
2017-12-04T04:29:43.708Z,85.14
2017-12-04T04:32:11.331Z,85.18
2017-12-04T04:34:39.623Z,85.16
2017-12-04T04:37:07.210Z,85.42
2017-12-04T04:39:34.803Z,85.87
2017-12-04T04:42:02.373Z,85.82
2017-12-04T04:44:29.967Z,86.59
2017-12-04T04:46:57.582Z,86.87
2017-12-04T04:49:25.176Z,86.98
2017-12-04T04:51:52.810Z,87.11
2017-12-04T04:54:20.408Z,87.05
2017-12-04T04:56:48.006Z,87.00
2017-12-04T04:59:15.680Z,86.92
2017-12-04T05:01:43.257Z,86.86
2017-12-04T05:04:10.826Z,86.82
2017-12-04T05:06:38.398Z,86.25
2017-12-04T05:09:06.168Z,85.34
2017-12-04T05:11:33.761Z,85.62
2017-12-04T05:14:01.379Z,85.28
2017-12-04T05:16:28.994Z,85.46
2017-12-04T05:18:56.586Z,85.44
2017-12-04T05:21:24.214Z,85.49
2017-12-04T05:23:51.812Z,85.84
2017-12-04T05:26:19.413Z,86.36
2017-12-04T05:28:47.022Z,86.74
2017-12-04T05:31:14.610Z,86.83
2017-12-04T05:33:42.176Z,86.99
2017-12-04T05:36:09.783Z,87.90
2017-12-04T05:38:37.386Z,87.99
2017-12-04T05:41:05.085Z,86.35
2017-12-04T05:43:32.667Z,84.99
2017-12-04T05:46:00.305Z,85.04
2017-12-04T05:48:27.956Z,85.06
2017-12-04T05:50:55.498Z,84.81
2017-12-04T05:53:23.046Z,85.14
2017-12-04T05:55:50.629Z,84.70
2017-12-04T05:58:18.217Z,84.92
2017-12-04T06:00:45.773Z,85.13
2017-12-04T06:03:13.831Z,85.41
2017-12-04T06:05:41.442Z,85.76
2017-12-04T06:08:09.001Z,85.76
2017-12-04T06:10:36.606Z,85.88
2017-12-04T06:13:04.199Z,85.94
2017-12-04T06:15:31.829Z,86.04
2017-12-04T06:17:59.463Z,86.10
2017-12-04T06:20:27.074Z,85.81
2017-12-04T06:22:54.712Z,85.49
2017-12-04T06:25:22.294Z,85.88
2017-12-04T06:27:49.882Z,85.99
2017-12-04T06:30:17.584Z,86.32
2017-12-04T06:32:45.182Z,85.43
2017-12-04T06:35:12.770Z,85.74
2017-12-04T06:37:40.350Z,85.50
2017-12-04T06:40:07.962Z,85.03
2017-12-04T06:42:35.585Z,84.10
2017-12-04T06:45:03.625Z,84.01
2017-12-04T06:47:31.705Z,85.11
2017-12-04T06:49:59.490Z,84.94
2017-12-04T06:52:27.094Z,84.91
2017-12-04T06:54:54.595Z,84.64
2017-12-04T06:57:22.199Z,84.71
2017-12-04T06:59:49.784Z,85.00
2017-12-04T07:02:17.378Z,84.90
2017-12-04T07:04:44.992Z,84.87
2017-12-04T07:07:13.507Z,84.84
2017-12-04T07:09:41.079Z,85.10
2017-12-04T07:12:08.683Z,85.09
2017-12-04T07:14:36.263Z,85.58
2017-12-04T07:17:03.938Z,85.65
2017-12-04T07:19:33.068Z,85.32
2017-12-04T07:22:00.633Z,85.62
2017-12-04T07:24:28.215Z,85.44
2017-12-04T07:26:55.814Z,84.80
2017-12-04T07:29:23.388Z,84.80
2017-12-04T07:31:51.401Z,84.52
2017-12-04T07:34:18.983Z,84.24
2017-12-04T07:36:46.549Z,84.85
2017-12-04T07:39:14.190Z,85.64
2017-12-04T07:41:41.886Z,86.53
2017-12-04T07:44:09.442Z,87.52
2017-12-04T07:46:37.021Z,87.44
2017-12-04T07:49:04.609Z,87.79
2017-12-04T07:51:32.655Z,88.71
2017-12-04T07:54:00.248Z,88.75
2017-12-04T07:56:27.806Z,88.64
2017-12-04T07:58:55.355Z,88.37
2017-12-04T08:01:22.970Z,88.10
2017-12-04T08:03:50.517Z,88.08
2017-12-04T08:06:18.084Z,87.64
2017-12-04T08:08:45.846Z,87.17
2017-12-04T08:11:13.437Z,86.59
2017-12-04T08:13:40.975Z,86.46
2017-12-04T08:16:08.555Z,86.01
2017-12-04T08:18:36.113Z,85.73
2017-12-04T08:21:03.677Z,85.71
2017-12-04T08:23:31.303Z,85.27
2017-12-04T08:25:58.977Z,85.86
2017-12-04T08:28:26.578Z,85.90
2017-12-04T08:30:54.191Z,85.72
2017-12-04T08:33:21.758Z,85.96
2017-12-04T08:35:49.320Z,85.37
2017-12-04T08:38:16.921Z,85.67
2017-12-04T08:40:44.496Z,85.62
2017-12-04T08:43:12.193Z,85.93
2017-12-04T08:45:39.781Z,85.42
2017-12-04T08:48:07.406Z,85.47
2017-12-04T08:50:35.036Z,85.90
2017-12-04T08:53:04.340Z,85.58
2017-12-04T08:55:31.855Z,85.41
2017-12-04T08:57:59.355Z,85.24
2017-12-04T09:00:26.906Z,85.40
2017-12-04T09:02:54.475Z,85.50
2017-12-04T09:05:22.043Z,85.35
2017-12-04T09:07:49.598Z,85.75
2017-12-04T09:10:17.174Z,85.58
2017-12-04T09:12:44.752Z,85.41
2017-12-04T09:15:12.363Z,85.20
2017-12-04T09:17:39.965Z,85.53
2017-12-04T09:20:07.556Z,85.40
2017-12-04T09:22:35.148Z,85.39
2017-12-04T09:25:02.839Z,85.13
2017-12-04T09:27:30.377Z,84.87
2017-12-04T09:29:57.943Z,84.79
2017-12-04T09:32:25.522Z,84.92
2017-12-04T09:34:53.158Z,85.25
2017-12-04T09:37:20.747Z,84.70
2017-12-04T09:39:48.337Z,84.50
2017-12-04T09:42:15.901Z,85.08
2017-12-04T09:44:43.461Z,85.08
2017-12-04T09:47:11.417Z,84.69
2017-12-04T09:49:39.325Z,84.50
2017-12-04T09:52:06.992Z,85.03
2017-12-04T09:54:34.854Z,85.63
2017-12-04T09:57:02.351Z,85.57
2017-12-04T09:59:29.975Z,85.52
2017-12-04T10:01:57.600Z,85.50
2017-12-04T10:04:25.168Z,85.75
2017-12-04T10:06:52.741Z,86.11
2017-12-04T10:09:20.403Z,86.43
2017-12-04T10:11:47.968Z,87.27
2017-12-04T10:14:15.608Z,88.39
2017-12-04T10:16:43.237Z,88.17
2017-12-04T10:19:11.368Z,88.10
2017-12-04T10:21:40.322Z,88.15
2017-12-04T10:24:07.966Z,88.43
2017-12-04T10:26:35.515Z,88.57
2017-12-04T10:29:03.068Z,87.82
2017-12-04T10:31:31.010Z,87.72
2017-12-04T10:33:58.563Z,88.09
2017-12-04T10:36:27.169Z,88.19
2017-12-04T10:38:54.772Z,88.42
2017-12-04T10:41:22.390Z,88.13
2017-12-04T10:43:50.007Z,87.36
2017-12-04T10:46:17.725Z,87.54
2017-12-04T10:48:45.321Z,87.54
2017-12-04T10:51:12.932Z,86.47
2017-12-04T10:53:40.525Z,85.32
2017-12-04T10:56:08.175Z,85.20
2017-12-04T10:58:35.820Z,84.93
2017-12-04T11:01:03.400Z,84.21
2017-12-04T11:03:31.987Z,83.75
2017-12-04T11:05:59.814Z,82.96
2017-12-04T11:08:27.406Z,82.34
2017-12-04T11:10:55.377Z,82.78
2017-12-04T11:13:22.947Z,83.27
2017-12-04T11:15:50.538Z,83.98
2017-12-04T11:18:19.192Z,83.73
2017-12-04T11:20:46.868Z,83.45
2017-12-04T11:23:14.737Z,84.46
2017-12-04T11:25:42.405Z,83.98
2017-12-04T11:28:09.962Z,83.89
2017-12-04T11:30:37.542Z,83.84
2017-12-04T11:33:05.182Z,84.94
2017-12-04T11:35:32.785Z,84.12
2017-12-04T11:38:01.729Z,84.16
2017-12-04T11:40:29.544Z,84.32
2017-12-04T11:42:57.206Z,85.09
2017-12-04T11:45:24.898Z,84.56
2017-12-04T11:47:52.451Z,84.33
2017-12-04T11:50:20.035Z,83.79
2017-12-04T11:52:47.625Z,83.63
2017-12-04T11:55:15.314Z,84.04
2017-12-04T11:57:42.879Z,84.18
2017-12-04T12:00:10.527Z,84.53
2017-12-04T12:02:38.074Z,83.75
2017-12-04T12:05:05.903Z,84.17
2017-12-04T12:07:33.474Z,84.63
2017-12-04T12:10:01.041Z,84.22
2017-12-04T12:12:28.734Z,84.11
2017-12-04T12:14:56.347Z,84.04
2017-12-04T12:17:24.876Z,83.52
2017-12-04T12:19:52.457Z,83.14
2017-12-04T12:22:19.990Z,82.83
2017-12-04T12:24:47.534Z,82.90
2017-12-04T12:27:15.114Z,82.93
2017-12-04T12:29:42.668Z,82.85
2017-12-04T12:32:10.407Z,82.85
2017-12-04T12:34:37.999Z,82.78
2017-12-04T12:37:05.777Z,83.48
2017-12-04T12:39:33.351Z,83.35
2017-12-04T12:42:00.952Z,83.01
2017-12-04T12:44:28.796Z,82.91
2017-12-04T12:46:56.340Z,83.96
2017-12-04T12:49:23.933Z,84.12
2017-12-04T12:51:51.501Z,85.15
2017-12-04T12:54:19.091Z,84.90
2017-12-04T12:56:46.686Z,85.22
2017-12-04T12:59:14.487Z,85.90
2017-12-04T13:01:42.029Z,86.75
2017-12-04T13:04:09.691Z,88.12
2017-12-04T13:06:37.244Z,89.37
2017-12-04T13:09:05.154Z,89.43
2017-12-04T13:11:32.768Z,90.18
2017-12-04T13:14:00.384Z,90.30
2017-12-04T13:16:27.998Z,90.70
2017-12-04T13:18:55.581Z,90.49
2017-12-04T13:21:23.193Z,91.22
2017-12-04T13:23:50.786Z,92.34
2017-12-04T13:26:18.376Z,92.73
2017-12-04T13:28:45.904Z,93.15
2017-12-04T13:31:13.648Z,93.13
2017-12-04T13:33:52.963Z,93.20
2017-12-04T13:36:32.325Z,93.22
2017-12-04T13:38:59.927Z,92.46
2017-12-04T13:41:28.385Z,92.08
2017-12-04T13:43:56.338Z,91.85
2017-12-04T13:46:23.893Z,91.26
2017-12-04T13:48:51.455Z,90.51
2017-12-04T13:51:19.018Z,90.31
2017-12-04T13:53:46.624Z,90.37
2017-12-04T13:56:14.225Z,89.49
2017-12-04T13:58:41.795Z,89.08
2017-12-04T14:01:09.425Z,89.42
2017-12-04T14:03:37.016Z,88.47
2017-12-04T14:06:04.707Z,88.20
2017-12-04T14:08:32.316Z,88.62
2017-12-04T14:10:59.898Z,88.77
2017-12-04T14:13:27.502Z,88.73
2017-12-04T14:15:55.064Z,88.58
2017-12-04T14:18:24.264Z,88.89
2017-12-04T14:20:51.873Z,89.27
2017-12-04T14:23:19.605Z,89.45
2017-12-04T14:25:47.182Z,89.91
2017-12-04T14:28:14.762Z,90.28
2017-12-04T14:30:42.342Z,90.41
2017-12-04T14:33:10.874Z,90.77
2017-12-04T14:35:38.425Z,91.07
2017-12-04T14:38:06.030Z,90.74
2017-12-04T14:40:33.582Z,91.04
2017-12-04T14:43:01.162Z,91.13
2017-12-04T14:45:28.969Z,91.17
2017-12-04T14:47:56.706Z,90.91
2017-12-04T14:50:24.265Z,90.83
2017-12-04T14:52:51.874Z,90.66
2017-12-04T14:55:19.440Z,90.86
2017-12-04T14:57:47.668Z,90.31
2017-12-04T15:00:15.436Z,90.42
2017-12-04T15:02:43.505Z,90.39
2017-12-04T15:05:11.427Z,89.93
2017-12-04T15:07:40.822Z,89.70
2017-12-04T15:10:10.192Z,88.68
2017-12-04T15:12:37.816Z,88.51
2017-12-04T15:15:11.094Z,88.16
2017-12-04T15:17:39.932Z,88.42
2017-12-04T15:20:08.990Z,88.06
2017-12-04T15:22:40.855Z,88.17
2017-12-04T15:25:08.684Z,88.41
2017-12-04T15:27:38.338Z,88.32
2017-12-04T15:30:06.174Z,88.39
2017-12-04T15:32:34.726Z,88.81
2017-12-04T15:35:05.153Z,88.32
2017-12-04T15:37:32.797Z,88.78
2017-12-04T15:40:01.254Z,88.89
2017-12-04T15:42:29.018Z,88.84
2017-12-04T15:44:56.621Z,89.08
2017-12-04T15:47:24.205Z,89.37
2017-12-04T15:49:51.789Z,88.66
2017-12-04T15:52:19.529Z,87.59
2017-12-04T15:54:47.790Z,87.28
2017-12-04T15:57:15.368Z,87.40
2017-12-04T15:59:43.106Z,87.53
2017-12-04T16:02:10.742Z,86.63
2017-12-04T16:04:38.303Z,86.87
2017-12-04T16:07:05.879Z,86.36
2017-12-04T16:09:33.520Z,86.33
2017-12-04T16:12:01.087Z,86.27
2017-12-04T16:14:28.699Z,86.04
2017-12-04T16:16:56.291Z,86.27
2017-12-04T16:19:24.109Z,86.46
2017-12-04T16:21:51.956Z,86.37
2017-12-04T16:24:19.560Z,86.59
2017-12-04T16:26:47.122Z,86.59
2017-12-04T16:29:14.749Z,86.55
2017-12-04T16:31:42.348Z,86.47
2017-12-04T16:34:09.993Z,86.63
2017-12-04T16:36:37.620Z,86.88
2017-12-04T16:39:06.020Z,87.32
2017-12-04T16:41:34.152Z,87.52
2017-12-04T16:44:01.770Z,87.67
2017-12-04T16:46:29.370Z,87.78
2017-12-04T16:48:56.962Z,88.66
2017-12-04T16:51:24.930Z,89.94
2017-12-04T16:53:52.808Z,90.77
2017-12-04T16:56:20.437Z,91.69
2017-12-04T16:58:48.041Z,91.93
2017-12-04T17:01:15.627Z,92.54
2017-12-04T17:03:43.200Z,93.06
2017-12-04T17:06:10.897Z,93.29
2017-12-04T17:08:38.467Z,93.37
2017-12-04T17:11:06.183Z,93.05
2017-12-04T17:13:33.909Z,93.12
2017-12-04T17:16:01.465Z,91.98
2017-12-04T17:18:29.052Z,91.93
2017-12-04T17:20:56.667Z,91.87
2017-12-04T17:23:24.332Z,91.89
2017-12-04T17:25:51.974Z,91.43
2017-12-04T17:28:19.551Z,91.31
2017-12-04T17:30:47.728Z,91.23
2017-12-04T17:33:17.427Z,90.75
2017-12-04T17:35:45.291Z,90.34
2017-12-04T17:38:13.191Z,90.50
2017-12-04T17:40:41.175Z,91.07
2017-12-04T17:43:12.726Z,91.34
2017-12-04T17:45:42.814Z,91.69
2017-12-04T17:48:11.792Z,91.83
2017-12-04T17:50:40.820Z,91.87
2017-12-04T17:53:08.412Z,91.58
2017-12-04T17:55:37.957Z,91.43
2017-12-04T17:58:05.554Z,91.56
2017-12-04T18:00:33.099Z,91.31
2017-12-04T18:03:00.763Z,90.98
2017-12-04T18:05:28.458Z,90.84
2017-12-04T18:07:56.053Z,90.52
2017-12-04T18:10:23.619Z,90.11
2017-12-04T18:12:51.245Z,89.72
2017-12-04T18:15:18.792Z,89.67
2017-12-04T18:17:46.357Z,89.68
2017-12-04T18:20:13.944Z,89.81
2017-12-04T18:22:41.527Z,89.44
2017-12-04T18:25:09.372Z,88.84
2017-12-04T18:27:37.079Z,88.60
2017-12-04T18:30:04.652Z,88.54
2017-12-04T18:32:32.242Z,88.83
2017-12-04T18:34:59.891Z,88.02
2017-12-04T18:37:28.938Z,88.94
2017-12-04T18:39:56.501Z,88.62
2017-12-04T18:42:24.064Z,88.75
2017-12-04T18:44:51.625Z,89.06
2017-12-04T18:47:19.420Z,89.38
2017-12-04T18:49:47.018Z,89.36
2017-12-04T18:52:14.607Z,89.68
2017-12-04T18:54:42.165Z,89.91
2017-12-04T18:57:10.420Z,89.13
2017-12-04T18:59:38.123Z,88.92
2017-12-04T19:02:08.866Z,89.15
2017-12-04T19:04:37.211Z,89.28
2017-12-04T19:07:18.087Z,89.73
2017-12-04T19:09:45.689Z,90.08
2017-12-04T19:12:13.246Z,90.17
2017-12-04T19:14:41.749Z,88.85
2017-12-04T19:17:10.988Z,89.45
2017-12-04T19:19:39.219Z,89.60
2017-12-04T19:22:08.849Z,89.79
2017-12-04T19:24:37.270Z,89.33
2017-12-04T19:27:09.430Z,89.29
2017-12-04T19:29:37.299Z,88.54
2017-12-04T19:32:04.916Z,87.74
2017-12-04T19:34:32.991Z,87.55
2017-12-04T19:37:00.994Z,88.22
2017-12-04T19:39:29.195Z,88.80
2017-12-04T19:41:56.992Z,88.69
2017-12-04T19:44:24.657Z,88.72
2017-12-04T19:46:54.052Z,89.01
2017-12-04T19:49:22.156Z,89.37
2017-12-04T19:51:50.400Z,88.66
2017-12-04T19:54:18.154Z,87.73
2017-12-04T19:56:46.001Z,87.00
2017-12-04T19:59:14.791Z,87.63
2017-12-04T20:01:42.616Z,87.02
2017-12-04T20:04:10.348Z,86.20
2017-12-04T20:06:37.961Z,87.28
2017-12-04T20:09:05.985Z,87.29
2017-12-04T20:11:34.314Z,88.48
2017-12-04T20:14:02.028Z,87.27
2017-12-04T20:16:29.626Z,87.62
2017-12-04T20:18:57.205Z,87.42
2017-12-04T20:21:24.832Z,87.20
2017-12-04T20:23:52.484Z,87.44
2017-12-04T20:26:20.569Z,88.29
2017-12-04T20:28:48.349Z,87.54
2017-12-04T20:31:15.939Z,87.97
2017-12-04T20:33:43.545Z,88.55
2017-12-04T20:36:11.191Z,87.93
2017-12-04T20:38:38.772Z,87.77
2017-12-04T20:41:06.786Z,88.75
2017-12-04T20:43:34.538Z,89.24
2017-12-04T20:46:02.169Z,89.59
2017-12-04T20:51:20.814Z,90.66
2017-12-04T20:53:48.424Z,91.21
2017-12-04T20:56:16.150Z,91.75
2017-12-04T20:58:43.816Z,92.21
2017-12-04T21:01:11.419Z,92.54
2017-12-04T21:03:39.037Z,92.79
2017-12-04T21:06:06.686Z,92.74
2017-12-04T21:08:45.898Z,92.81
2017-12-04T21:11:25.548Z,92.93
2017-12-04T21:14:04.799Z,92.64
2017-12-04T21:16:45.956Z,92.47
2017-12-04T21:19:14.428Z,92.79
2017-12-04T21:21:42.025Z,93.18
2017-12-04T21:24:09.736Z,93.45
2017-12-04T21:26:37.323Z,93.78
2017-12-04T21:29:05.551Z,94.06
2017-12-04T21:31:34.023Z,94.45
2017-12-04T21:34:02.168Z,94.70
2017-12-04T21:36:30.128Z,94.97
2017-12-04T21:38:58.197Z,95.08
2017-12-04T21:41:26.257Z,94.93
2017-12-04T21:43:53.821Z,95.06
2017-12-04T21:46:21.685Z,95.05
2017-12-04T21:48:49.475Z,94.93
2017-12-04T21:51:17.677Z,94.93
2017-12-04T21:53:45.881Z,94.83
2017-12-04T21:56:15.043Z,94.97
2017-12-04T21:58:42.939Z,95.14
2017-12-04T22:01:11.495Z,95.04
2017-12-04T22:03:39.487Z,94.95
2017-12-04T22:06:07.327Z,94.83
2017-12-04T22:08:35.000Z,94.82
2017-12-04T22:11:02.575Z,94.79
2017-12-04T22:13:30.139Z,94.62
2017-12-04T22:15:57.776Z,94.63
2017-12-04T22:18:25.372Z,94.60
2017-12-04T22:20:52.922Z,94.68
2017-12-04T22:23:20.501Z,94.59
2017-12-04T22:25:48.098Z,94.59
2017-12-04T22:28:15.684Z,94.53
2017-12-04T22:30:43.301Z,94.23
2017-12-04T22:33:10.870Z,94.09
2017-12-04T22:35:38.438Z,93.98
2017-12-04T22:38:06.050Z,93.64
2017-12-04T22:40:33.614Z,93.36
2017-12-04T22:43:01.226Z,92.16
2017-12-04T22:45:28.841Z,92.48
2017-12-04T22:47:56.397Z,92.48
2017-12-04T22:50:24.008Z,92.29
2017-12-04T22:52:51.598Z,91.88
2017-12-04T22:55:19.473Z,91.31
2017-12-04T22:57:47.082Z,91.10
2017-12-04T23:00:26.285Z,91.30
2017-12-04T23:02:53.924Z,91.16
2017-12-04T23:05:21.531Z,91.34
2017-12-04T23:07:49.092Z,91.25
2017-12-04T23:10:17.679Z,91.22
2017-12-04T23:12:45.346Z,91.30
2017-12-04T23:15:13.257Z,91.36
2017-12-04T23:17:41.611Z,91.47
2017-12-04T23:20:09.217Z,91.16
2017-12-04T23:22:36.842Z,90.93
2017-12-04T23:25:04.432Z,91.13
2017-12-04T23:27:32.062Z,91.19
2017-12-04T23:30:01.584Z,91.05
2017-12-04T23:32:29.214Z,90.83
2017-12-04T23:34:57.929Z,91.17
2017-12-04T23:37:25.532Z,91.03
2017-12-04T23:39:53.125Z,90.47
2017-12-04T23:42:20.916Z,91.14
2017-12-04T23:44:48.477Z,90.27
2017-12-04T23:47:16.061Z,88.96
2017-12-04T23:49:43.664Z,90.34
2017-12-04T23:52:11.263Z,90.49
2017-12-04T23:54:38.817Z,90.49
2017-12-04T23:57:06.504Z,90.16
2017-12-04T23:59:34.117Z,89.61
